createdAt,value
2019-03-30T00:01:11.128Z,21.10
2019-03-30T00:03:41.666Z,21.40
2019-03-30T00:06:12.196Z,23.63
2019-03-30T00:08:42.712Z,26.13
2019-03-30T00:11:13.284Z,24.93
2019-03-30T00:13:43.831Z,25.80
2019-03-30T00:16:14.344Z,26.40
2019-03-30T00:18:44.776Z,19.70
2019-03-30T00:21:15.623Z,28.52
2019-03-30T00:23:46.117Z,26.70
2019-03-30T00:26:16.749Z,28.00
2019-03-30T00:28:47.210Z,28.87
2019-03-30T00:31:17.800Z,25.93
2019-03-30T00:33:48.691Z,23.45
2019-03-30T00:36:19.105Z,21.73
2019-03-30T00:38:49.586Z,23.83
2019-03-30T00:41:20.375Z,25.53
2019-03-30T00:43:50.885Z,23.57
2019-03-30T00:46:21.649Z,24.53
2019-03-30T00:48:52.021Z,23.73
2019-03-30T00:51:22.678Z,23.87
2019-03-30T00:53:53.439Z,25.10
2019-03-30T00:56:24.073Z,22.80
2019-03-30T00:58:54.582Z,22.77
2019-03-30T01:01:25.100Z,26.57
2019-03-30T01:03:56.590Z,20.73
2019-03-30T01:06:27.055Z,27.17
2019-03-30T01:08:57.614Z,22.03
2019-03-30T01:11:28.173Z,26.33
2019-03-30T01:13:58.597Z,23.73
2019-03-30T01:16:29.420Z,23.07
2019-03-30T01:18:59.929Z,26.23
2019-03-30T01:21:30.363Z,23.97
2019-03-30T01:24:00.875Z,21.80
2019-03-30T01:26:31.459Z,24.53
2019-03-30T01:29:01.974Z,28.70
2019-03-30T01:31:32.609Z,23.87
2019-03-30T01:34:03.316Z,19.97
2019-03-30T01:36:33.739Z,20.70
2019-03-30T01:39:05.860Z,21.50
2019-03-30T01:41:36.379Z,25.70
2019-03-30T01:44:07.142Z,25.67
2019-03-30T01:46:37.841Z,22.40
2019-03-30T01:49:08.268Z,23.07
2019-03-30T01:51:38.786Z,23.90
2019-03-30T01:54:09.584Z,23.07
2019-03-30T01:56:39.995Z,26.13
2019-03-30T01:59:10.501Z,24.03
2019-03-30T02:01:40.952Z,24.33
2019-03-30T02:04:11.792Z,22.17
2019-03-30T02:06:42.587Z,22.40
2019-03-30T02:09:13.078Z,26.07
2019-03-30T02:11:43.774Z,25.67
2019-03-30T02:14:14.210Z,24.53
2019-03-30T02:16:44.990Z,21.50
2019-03-30T02:19:15.516Z,24.93
2019-03-30T02:21:46.023Z,21.73
2019-03-30T02:24:16.508Z,24.33
2019-03-30T02:26:47.102Z,27.73
2019-03-30T02:29:18.677Z,22.43
2019-03-30T02:31:49.748Z,23.20
2019-03-30T02:34:20.470Z,21.93
2019-03-30T02:36:51.080Z,23.60
2019-03-30T02:39:21.679Z,26.17
2019-03-30T02:41:52.175Z,22.63
2019-03-30T02:44:22.735Z,23.87
2019-03-30T02:46:53.577Z,25.20
2019-03-30T02:49:24.213Z,22.30
2019-03-30T02:51:54.898Z,21.30
2019-03-30T02:54:25.419Z,26.83
2019-03-30T02:56:56.173Z,25.07
2019-03-30T02:59:26.550Z,25.20
2019-03-30T03:01:57.131Z,22.93
2019-03-30T03:04:27.641Z,22.67
2019-03-30T03:06:58.364Z,21.60
2019-03-30T03:09:28.820Z,25.53
2019-03-30T03:11:59.499Z,21.83
2019-03-30T03:14:29.922Z,19.23
2019-03-30T03:17:00.444Z,21.97
2019-03-30T03:19:31.288Z,22.33
2019-03-30T03:22:01.817Z,21.97
2019-03-30T03:24:32.357Z,19.83
2019-03-30T03:27:02.976Z,22.87
2019-03-30T03:29:33.533Z,24.20
2019-03-30T03:32:04.162Z,21.10
2019-03-30T03:34:34.654Z,24.10
2019-03-30T03:37:05.281Z,20.37
2019-03-30T03:39:35.771Z,19.83
2019-03-30T03:42:06.301Z,25.00
2019-03-30T03:44:36.861Z,20.33
2019-03-30T03:47:07.469Z,22.17
2019-03-30T03:49:38.003Z,25.30
2019-03-30T03:52:08.937Z,23.60
2019-03-30T03:54:39.497Z,19.67
2019-03-30T03:57:12.661Z,23.57
2019-03-30T03:59:43.902Z,20.10
2019-03-30T04:02:16.945Z,21.27
2019-03-30T04:04:48.598Z,22.23
2019-03-30T04:07:20.405Z,18.83
2019-03-30T04:09:52.315Z,23.37
2019-03-30T04:12:24.288Z,21.93
2019-03-30T04:14:55.206Z,21.63
2019-03-30T04:17:25.787Z,21.23
2019-03-30T04:19:56.319Z,20.57
2019-03-30T04:22:26.875Z,21.90
2019-03-30T04:24:57.681Z,23.10
2019-03-30T04:27:28.158Z,23.83
2019-03-30T04:29:58.794Z,20.57
2019-03-30T04:32:29.383Z,22.00
2019-03-30T04:35:00.482Z,22.60
2019-03-30T04:37:30.950Z,22.60
2019-03-30T04:40:01.552Z,20.07
2019-03-30T04:42:32.205Z,21.40
2019-03-30T04:45:02.713Z,19.60
2019-03-30T04:47:33.212Z,20.67
2019-03-30T04:50:03.774Z,18.77
2019-03-30T04:52:34.569Z,22.10
2019-03-30T04:55:05.144Z,22.20
2019-03-30T04:57:35.869Z,25.10
2019-03-30T05:00:07.768Z,26.07
2019-03-30T05:02:38.285Z,22.40
2019-03-30T05:05:09.079Z,22.83
2019-03-30T05:07:39.842Z,23.10
2019-03-30T05:10:10.436Z,22.60
2019-03-30T05:12:40.962Z,22.27
2019-03-30T05:15:11.743Z,21.33
2019-03-30T05:17:47.596Z,24.60
2019-03-30T05:20:14.917Z,23.30
2019-03-30T05:22:45.417Z,24.80
2019-03-30T05:25:15.940Z,22.23
2019-03-30T05:27:46.378Z,21.37
2019-03-30T05:30:17.881Z,26.42
2019-03-30T05:32:48.440Z,19.47
2019-03-30T05:35:18.961Z,23.40
2019-03-30T05:37:49.397Z,22.40
2019-03-30T05:40:19.909Z,27.57
2019-03-30T05:42:50.662Z,26.63
2019-03-30T05:45:21.196Z,22.30
2019-03-30T05:47:51.963Z,25.30
2019-03-30T05:50:22.473Z,27.40
2019-03-30T05:52:53.139Z,23.63
2019-03-30T05:55:23.698Z,23.80
2019-03-30T05:57:54.449Z,25.57
2019-03-30T06:00:25.966Z,22.80
2019-03-30T06:02:56.613Z,21.20
2019-03-30T06:05:27.853Z,23.17
2019-03-30T06:07:58.770Z,25.20
2019-03-30T06:10:29.317Z,30.10
2019-03-30T06:13:00.554Z,36.93
2019-03-30T06:15:31.383Z,25.63
2019-03-30T06:18:02.430Z,25.53
2019-03-30T06:20:33.271Z,24.47
2019-03-30T06:23:04.113Z,23.73
2019-03-30T06:25:34.644Z,23.67
2019-03-30T06:28:05.151Z,23.83
2019-03-30T06:30:35.662Z,27.87
2019-03-30T06:33:06.182Z,23.47
2019-03-30T06:35:36.815Z,18.40
2019-03-30T06:38:07.580Z,21.00
2019-03-30T06:40:38.120Z,25.90
2019-03-30T06:43:09.170Z,27.20
2019-03-30T06:45:39.763Z,21.43
2019-03-30T06:48:10.640Z,25.30
2019-03-30T06:50:41.483Z,24.07
2019-03-30T06:53:12.152Z,21.90
2019-03-30T06:55:42.576Z,21.47
2019-03-30T06:58:13.474Z,24.77
2019-03-30T07:00:45.450Z,23.07
2019-03-30T07:03:16.773Z,23.97
2019-03-30T07:05:47.609Z,21.87
2019-03-30T07:08:18.701Z,30.03
2019-03-30T07:10:49.823Z,22.87
2019-03-30T07:13:20.740Z,20.27
2019-03-30T07:15:51.374Z,21.83
2019-03-30T07:18:21.891Z,22.17
2019-03-30T07:20:52.448Z,17.67
2019-03-30T07:23:22.933Z,21.73
2019-03-30T07:25:54.120Z,19.47
2019-03-30T07:28:24.669Z,21.37
2019-03-30T07:30:55.205Z,23.77
2019-03-30T07:33:26.871Z,19.13
2019-03-30T07:35:57.544Z,20.13
2019-03-30T07:38:28.071Z,25.47
2019-03-30T07:40:58.585Z,21.17
2019-03-30T07:43:29.138Z,21.00
2019-03-30T07:46:00.147Z,21.40
2019-03-30T07:48:30.686Z,22.80
2019-03-30T07:51:01.277Z,20.57
2019-03-30T07:53:43.808Z,21.17
2019-03-30T07:56:08.646Z,18.57
2019-03-30T07:58:38.072Z,21.68
2019-03-30T08:01:08.956Z,20.75
2019-03-30T08:03:39.802Z,21.77
2019-03-30T08:06:10.615Z,19.52
2019-03-30T08:08:41.555Z,18.35
2019-03-30T08:11:14.387Z,22.13
2019-03-30T08:13:44.239Z,20.95
2019-03-30T08:16:14.752Z,22.32
2019-03-30T08:18:45.359Z,20.37
2019-03-30T08:21:16.306Z,19.15
2019-03-30T08:23:46.823Z,24.40
2019-03-30T08:26:17.358Z,22.82
2019-03-30T08:28:47.771Z,19.30
2019-03-30T08:31:18.948Z,21.85
2019-03-30T08:33:49.501Z,24.07
2019-03-30T08:36:20.372Z,22.73
2019-03-30T08:38:50.895Z,21.35
2019-03-30T08:41:21.883Z,23.67
2019-03-30T08:43:52.399Z,20.35
2019-03-30T08:46:22.888Z,20.55
2019-03-30T08:48:53.456Z,19.10
2019-03-30T08:51:24.053Z,19.50
2019-03-30T08:53:55.179Z,16.48
2019-03-30T08:56:27.995Z,17.32
2019-03-30T08:58:58.417Z,16.48
2019-03-30T09:01:28.923Z,18.57
2019-03-30T09:03:59.438Z,17.62
2019-03-30T09:06:29.939Z,20.80
2019-03-30T09:09:00.365Z,19.67
2019-03-30T09:11:30.950Z,16.40
2019-03-30T09:14:01.394Z,21.12
2019-03-30T09:16:32.335Z,20.08
2019-03-30T09:19:02.910Z,17.12
2019-03-30T09:21:34.244Z,18.12
2019-03-30T09:24:09.833Z,16.62
2019-03-30T09:26:36.892Z,18.62
2019-03-30T09:29:07.518Z,18.45
2019-03-30T09:31:38.028Z,15.00
2019-03-30T09:34:09.059Z,19.95
2019-03-30T09:36:40.001Z,16.50
2019-03-30T09:39:11.250Z,15.50
2019-03-30T09:41:41.763Z,17.45
2019-03-30T09:44:12.132Z,16.37
2019-03-30T09:46:43.138Z,20.43
2019-03-30T09:49:14.380Z,17.15
2019-03-30T09:51:44.814Z,19.75
2019-03-30T09:54:23.476Z,15.78
2019-03-30T09:56:47.958Z,16.73
2019-03-30T09:59:18.604Z,19.17
2019-03-30T10:01:49.236Z,17.80
2019-03-30T10:04:19.862Z,18.77
2019-03-30T10:06:51.757Z,14.70
2019-03-30T10:09:22.346Z,17.12
2019-03-30T10:11:52.876Z,15.63
2019-03-30T10:14:23.424Z,17.17
2019-03-30T10:16:53.923Z,18.45
2019-03-30T10:19:27.713Z,18.15
2019-03-30T10:21:56.671Z,16.02
2019-03-30T10:24:37.878Z,18.15
2019-03-30T10:26:59.779Z,13.72
2019-03-30T10:29:31.169Z,16.65
2019-03-30T10:32:01.810Z,17.05
2019-03-30T10:34:32.380Z,16.80
2019-03-30T10:37:03.140Z,11.97
2019-03-30T10:39:34.061Z,12.20
2019-03-30T10:42:04.627Z,15.38
2019-03-30T10:44:35.290Z,16.17
2019-03-30T10:47:05.822Z,14.38
2019-03-30T10:49:36.597Z,14.63
2019-03-30T10:52:07.367Z,15.28
2019-03-30T10:54:51.708Z,15.25
2019-03-30T10:57:10.962Z,13.35
2019-03-30T10:59:41.424Z,12.10
2019-03-30T11:02:12.010Z,14.87
2019-03-30T11:04:42.618Z,16.20
2019-03-30T11:07:13.137Z,17.57
2019-03-30T11:09:43.558Z,14.98
2019-03-30T11:12:14.341Z,16.80
2019-03-30T11:14:45.174Z,9.35
2019-03-30T11:17:19.238Z,13.98
2019-03-30T11:19:48.213Z,11.43
2019-03-30T11:22:18.746Z,15.78
2019-03-30T11:24:49.354Z,14.47
2019-03-30T11:27:19.867Z,14.90
2019-03-30T11:29:50.820Z,14.87
2019-03-30T11:32:21.650Z,14.75
2019-03-30T11:34:52.191Z,14.87
2019-03-30T11:37:22.779Z,16.17
2019-03-30T11:39:53.364Z,16.52
2019-03-30T11:42:23.967Z,15.65
2019-03-30T11:44:54.573Z,14.23
2019-03-30T11:47:25.185Z,16.10
2019-03-30T11:49:55.642Z,17.50
2019-03-30T11:52:26.180Z,19.75
2019-03-30T11:54:56.638Z,14.87
2019-03-30T11:57:27.170Z,14.87
2019-03-30T11:59:58.002Z,17.90
2019-03-30T12:02:28.635Z,16.70
2019-03-30T12:04:59.653Z,17.87
2019-03-30T12:07:30.264Z,17.67
2019-03-30T12:10:00.699Z,18.55
2019-03-30T12:12:31.379Z,19.87
2019-03-30T12:15:01.965Z,17.07
2019-03-30T12:17:32.576Z,14.55
2019-03-30T12:20:03.181Z,13.08
2019-03-30T12:22:33.611Z,13.58
2019-03-30T12:25:04.350Z,15.90
2019-03-30T12:27:34.973Z,13.10
2019-03-30T12:30:05.874Z,18.37
2019-03-30T12:32:36.332Z,14.10
2019-03-30T12:35:07.363Z,12.50
2019-03-30T12:37:37.819Z,18.27
2019-03-30T12:40:08.502Z,16.07
2019-03-30T12:42:39.348Z,13.78
2019-03-30T12:45:09.959Z,7.92
2019-03-30T12:47:40.565Z,11.03
2019-03-30T12:50:11.074Z,10.35
2019-03-30T12:52:41.589Z,8.23
2019-03-30T12:55:12.682Z,6.75
2019-03-30T12:57:43.855Z,11.12
2019-03-30T13:00:14.493Z,10.93
2019-03-30T13:02:46.065Z,11.53
2019-03-30T13:05:16.566Z,13.20
2019-03-30T13:07:47.094Z,11.35
2019-03-30T13:10:17.948Z,10.30
2019-03-30T13:12:48.603Z,10.80
2019-03-30T13:15:19.124Z,13.38
2019-03-30T13:17:49.665Z,9.45
2019-03-30T13:20:20.184Z,13.80
2019-03-30T13:22:50.959Z,1.55
2019-03-30T13:25:21.500Z,13.03
2019-03-30T13:27:53.389Z,14.58
2019-03-30T13:30:25.275Z,17.75
2019-03-30T13:32:55.816Z,13.53
2019-03-30T13:35:26.268Z,12.55
2019-03-30T13:37:56.767Z,13.05
2019-03-30T13:40:27.287Z,13.25
2019-03-30T13:42:57.790Z,17.42
2019-03-30T13:45:28.658Z,12.33
2019-03-30T13:47:59.149Z,15.43
2019-03-30T13:50:31.113Z,16.77
2019-03-30T13:53:02.286Z,16.45
2019-03-30T13:55:32.776Z,15.65
2019-03-30T13:58:04.531Z,18.00
2019-03-30T14:00:35.638Z,15.83
2019-03-30T14:03:06.342Z,14.33
2019-03-30T14:05:37.000Z,17.35
2019-03-30T14:08:07.523Z,15.58
2019-03-30T14:10:39.189Z,15.80
2019-03-30T14:13:09.973Z,14.30
2019-03-30T14:15:40.432Z,14.93
2019-03-30T14:18:10.952Z,15.15
2019-03-30T14:20:41.368Z,14.38
2019-03-30T14:23:12.370Z,11.73
2019-03-30T14:25:42.809Z,12.90
2019-03-30T14:28:13.314Z,12.85
2019-03-30T14:30:43.835Z,14.95
2019-03-30T14:33:14.695Z,15.95
2019-03-30T14:35:45.224Z,14.50
2019-03-30T14:38:15.873Z,17.55
2019-03-30T14:40:46.477Z,13.18
2019-03-30T14:43:17.007Z,15.43
2019-03-30T14:45:47.720Z,13.90
2019-03-30T14:48:18.583Z,12.23
2019-03-30T14:50:49.457Z,15.95
2019-03-30T14:53:20.018Z,15.00
2019-03-30T14:55:50.812Z,13.22
2019-03-30T14:58:21.236Z,16.85
2019-03-30T15:00:51.773Z,12.98
2019-03-30T15:03:22.358Z,18.02
2019-03-30T15:05:52.895Z,16.45
2019-03-30T15:08:23.325Z,15.43
2019-03-30T15:10:53.855Z,15.80
2019-03-30T15:13:25.776Z,17.23
2019-03-30T15:15:56.341Z,17.05
2019-03-30T15:18:26.838Z,18.40
2019-03-30T15:20:57.489Z,15.85
2019-03-30T15:23:28.010Z,15.63
2019-03-30T15:25:58.838Z,18.40
2019-03-30T15:28:29.637Z,16.67
2019-03-30T15:31:00.585Z,16.67
2019-03-30T15:33:32.180Z,18.00
2019-03-30T15:36:02.990Z,17.52
2019-03-30T15:38:33.701Z,18.25
2019-03-30T15:41:04.226Z,26.02
2019-03-30T15:43:38.553Z,17.50
2019-03-30T15:46:07.238Z,13.30
2019-03-30T15:48:37.756Z,15.98
2019-03-30T15:51:08.301Z,13.32
2019-03-30T15:53:39.070Z,12.15
2019-03-30T15:56:09.588Z,14.53
2019-03-30T15:58:40.190Z,11.33
2019-03-30T16:01:11.278Z,14.87
2019-03-30T16:03:43.035Z,13.83
2019-03-30T16:06:13.477Z,12.55
2019-03-30T16:08:44.611Z,13.65
2019-03-30T16:11:15.146Z,14.33
2019-03-30T16:13:45.739Z,16.48
2019-03-30T16:16:16.192Z,17.52
2019-03-30T16:18:46.772Z,15.13
2019-03-30T16:21:17.415Z,15.80
2019-03-30T16:23:47.934Z,13.20
2019-03-30T16:26:18.726Z,14.60
2019-03-30T16:28:49.257Z,14.95
2019-03-30T16:31:19.890Z,14.38
2019-03-30T16:33:50.558Z,15.75
2019-03-30T16:36:21.346Z,15.98
2019-03-30T16:38:51.872Z,15.60
2019-03-30T16:41:22.506Z,18.95
2019-03-30T16:43:53.079Z,17.02
2019-03-30T16:46:23.772Z,17.73
2019-03-30T16:48:54.290Z,12.58
2019-03-30T16:51:25.074Z,14.23
2019-03-30T16:53:55.536Z,14.98
2019-03-30T16:56:26.062Z,15.08
2019-03-30T16:58:56.579Z,15.90
2019-03-30T17:01:27.080Z,12.75
2019-03-30T17:03:57.856Z,17.35
2019-03-30T17:06:28.397Z,15.35
2019-03-30T17:08:58.929Z,14.38
2019-03-30T17:11:29.437Z,17.55
2019-03-30T17:13:59.976Z,13.53
2019-03-30T17:16:30.486Z,15.98
2019-03-30T17:19:00.982Z,14.75
2019-03-30T17:21:31.528Z,14.75
2019-03-30T17:24:02.036Z,15.28
2019-03-30T17:26:32.585Z,14.28
2019-03-30T17:29:03.072Z,17.95
2019-03-30T17:31:34.078Z,14.20
2019-03-30T17:34:05.331Z,15.25
2019-03-30T17:36:35.900Z,17.32
2019-03-30T17:39:10.280Z,17.35
2019-03-30T17:41:40.723Z,15.08
2019-03-30T17:44:11.610Z,14.23
2019-03-30T17:46:42.277Z,18.40
2019-03-30T17:49:13.062Z,18.45
2019-03-30T17:51:43.618Z,18.40
2019-03-30T17:54:15.280Z,16.85
2019-03-30T17:56:45.803Z,18.42
2019-03-30T17:59:16.435Z,20.60
2019-03-30T18:01:47.118Z,20.27
2019-03-30T18:04:17.659Z,24.45
2019-03-30T18:06:48.193Z,21.33
2019-03-30T18:09:18.785Z,18.55
2019-03-30T18:11:49.630Z,20.52
2019-03-30T18:14:20.145Z,18.45
2019-03-30T18:16:50.670Z,19.15
2019-03-30T18:19:21.941Z,18.75
2019-03-30T18:21:52.457Z,20.52
2019-03-30T18:24:23.016Z,19.65
2019-03-30T18:26:53.545Z,21.95
2019-03-30T18:29:24.489Z,15.93
2019-03-30T18:31:55.025Z,20.23
2019-03-30T18:34:26.084Z,19.48
2019-03-30T18:36:57.050Z,17.07
2019-03-30T18:39:27.605Z,22.65
2019-03-30T18:41:58.051Z,18.82
2019-03-30T18:44:28.622Z,20.68
2019-03-30T18:46:59.055Z,20.85
2019-03-30T18:49:29.688Z,20.92
2019-03-30T18:52:01.132Z,20.27
2019-03-30T18:54:31.762Z,22.10
2019-03-30T18:57:02.754Z,21.75
2019-03-30T18:59:33.316Z,20.20
2019-03-30T19:02:03.814Z,21.27
2019-03-30T19:04:34.584Z,20.60
2019-03-30T19:07:05.384Z,22.00
2019-03-30T19:09:35.961Z,19.65
2019-03-30T19:12:06.540Z,23.12
2019-03-30T19:14:37.042Z,20.05
2019-03-30T19:17:07.663Z,21.07
2019-03-30T19:19:38.186Z,26.90
2019-03-30T19:22:08.875Z,20.65
2019-03-30T19:24:39.374Z,20.55
2019-03-30T19:27:09.846Z,20.23
2019-03-30T19:29:40.430Z,20.17
2019-03-30T19:32:11.223Z,21.23
2019-03-30T19:34:41.693Z,22.17
2019-03-30T19:37:13.184Z,23.95
2019-03-30T19:39:43.734Z,19.92
2019-03-30T19:42:15.980Z,20.80
2019-03-30T19:44:48.116Z,21.62
2019-03-30T19:47:18.977Z,22.13
2019-03-30T19:49:49.753Z,22.30
2019-03-30T19:52:20.514Z,21.00
2019-03-30T19:54:51.123Z,21.68
2019-03-30T19:57:21.477Z,22.05
2019-03-30T19:59:51.998Z,22.25
2019-03-30T20:02:22.448Z,23.22
2019-03-30T20:04:53.874Z,22.60
2019-03-30T20:07:24.811Z,23.83
2019-03-30T20:09:55.362Z,22.07
2019-03-30T20:12:25.863Z,26.62
2019-03-30T20:14:56.515Z,30.10
2019-03-30T20:17:27.421Z,25.12
2019-03-30T20:19:57.969Z,27.00
2019-03-30T20:22:28.498Z,32.23
2019-03-30T20:24:59.121Z,28.17
2019-03-30T20:27:30.027Z,27.58
2019-03-30T20:30:00.562Z,26.97
2019-03-30T20:32:31.144Z,26.30
2019-03-30T20:35:01.774Z,26.02
2019-03-30T20:37:32.430Z,25.50
2019-03-30T20:40:02.950Z,28.42
2019-03-30T20:42:34.542Z,23.67
2019-03-30T20:45:06.845Z,25.88
2019-03-30T20:47:38.650Z,25.73
2019-03-30T20:50:09.628Z,24.63
2019-03-30T20:52:40.197Z,24.65
2019-03-30T20:55:10.849Z,23.47
2019-03-30T20:57:41.442Z,25.40
2019-03-30T21:00:12.170Z,23.25
2019-03-30T21:02:43.063Z,29.27
2019-03-30T21:05:14.108Z,25.90
2019-03-30T21:07:44.622Z,29.48
2019-03-30T21:10:15.387Z,26.90
2019-03-30T21:12:45.976Z,30.25
2019-03-30T21:15:16.580Z,30.92
2019-03-30T21:17:47.069Z,32.60
2019-03-30T21:20:18.129Z,37.00
2019-03-30T21:22:48.700Z,40.95
2019-03-30T21:25:19.623Z,38.63
2019-03-30T21:27:50.597Z,39.05
2019-03-30T21:30:22.044Z,43.35
2019-03-30T21:32:53.312Z,38.33
2019-03-30T21:35:24.263Z,43.83
2019-03-30T21:37:58.322Z,43.08
2019-03-30T21:40:27.432Z,42.23
2019-03-30T21:42:58.412Z,45.48
2019-03-30T21:45:29.229Z,40.73
2019-03-30T21:47:59.778Z,38.95
2019-03-30T21:50:30.601Z,35.38
2019-03-30T21:53:01.446Z,42.80
2019-03-30T21:55:31.959Z,42.40
2019-03-30T21:58:02.438Z,42.75
2019-03-30T22:00:37.194Z,38.13
2019-03-30T22:03:08.080Z,39.78
2019-03-30T22:05:40.259Z,40.90
2019-03-30T22:08:10.807Z,39.00
2019-03-30T22:10:41.372Z,51.73
2019-03-30T22:13:11.975Z,41.45
2019-03-30T22:15:42.424Z,41.80
2019-03-30T22:18:12.984Z,39.33
2019-03-30T22:20:44.211Z,44.85
2019-03-30T22:23:15.047Z,45.70
2019-03-30T22:25:45.575Z,43.75
2019-03-30T22:28:16.191Z,45.58
2019-03-30T22:30:46.642Z,48.58
2019-03-30T22:33:18.558Z,51.90
2019-03-30T22:35:49.110Z,49.27
2019-03-30T22:38:19.706Z,44.83
2019-03-30T22:40:51.648Z,49.95
2019-03-30T22:43:22.170Z,54.88
2019-03-30T22:45:52.741Z,51.50
2019-03-30T22:48:23.315Z,57.93
2019-03-30T22:50:54.206Z,53.73
2019-03-30T22:53:24.830Z,50.92
2019-03-30T22:55:55.373Z,59.42
2019-03-30T22:58:25.826Z,58.17
2019-03-30T23:01:08.902Z,55.28
2019-03-30T23:03:41.119Z,59.67
2019-03-30T23:06:11.638Z,63.95
2019-03-30T23:08:42.305Z,60.85
2019-03-30T23:11:12.811Z,63.28
2019-03-30T23:13:43.323Z,60.85
2019-03-30T23:16:14.211Z,64.05
2019-03-30T23:18:45.443Z,62.67
2019-03-30T23:21:16.180Z,65.32
2019-03-30T23:23:46.738Z,64.37
2019-03-30T23:26:17.194Z,61.70
2019-03-30T23:28:47.768Z,65.83
2019-03-30T23:31:18.245Z,69.30
2019-03-30T23:33:48.650Z,63.73
2019-03-30T23:36:19.197Z,69.45
2019-03-30T23:38:49.689Z,66.40
2019-03-30T23:41:20.643Z,64.92
2019-03-30T23:43:51.188Z,65.35
2019-03-30T23:46:21.775Z,62.20
2019-03-30T23:48:52.314Z,64.60
2019-03-30T23:51:22.962Z,59.80
2019-03-30T23:53:53.870Z,66.77
2019-03-30T23:56:26.187Z,65.80
2019-03-30T23:58:57.128Z,65.10
